Time;durP1;ratioP1;P1;durP2;ratioP2;P2;SDS_P1;SDS_P2;PMS_P1;PMS_P2;Temp;Humidity;BMP_temperature;BMP_pressure;BME280_temperature;BME280_humidity;BME280_pressure;Samples;Min_cycle;Max_cycle;Signal;HPM_P1;HPM_P2
2022/11/11 00:01:24;;;;;;;2.42;2.20;;;6.50;99.90;;;;;;4972254;28;20597;-72
2022/11/11 00:03:54;;;;;;;4.30;2.20;;;6.40;99.90;;;;;;4971692;28;20897;-71
2022/11/11 00:06:20;;;;;;;3.67;2.10;;;6.40;99.90;;;;;;4971791;28;20408;-72
2022/11/11 00:08:47;;;;;;;2.60;2.28;;;6.30;99.90;;;;;;4971794;28;20393;-72
2022/11/11 00:11:13;;;;;;;5.30;2.72;;;6.30;99.90;;;;;;4971841;28;20392;-72
2022/11/11 00:13:40;;;;;;;2.38;2.17;;;6.30;99.90;;;;;;4970122;28;20404;-72
2022/11/11 00:16:08;;;;;;;2.40;2.00;;;6.40;99.90;;;;;;4971144;28;20482;-71
2022/11/11 00:26:48;;;;;;;3.45;2.50;;;6.30;99.90;;;;;;4971991;28;20507;-72
2022/11/11 00:29:13;;;;;;;2.40;1.93;;;6.20;99.90;;;;;;4971973;28;20942;-71
2022/11/11 00:32:21;;;;;;;2.10;1.90;;;6.10;99.90;;;;;;4971862;28;20795;-71
2022/11/11 00:34:24;;;;;;;2.92;1.88;;;6.00;99.90;;;;;;4971506;28;20442;-71
2022/11/11 00:36:50;;;;;;;2.08;1.90;;;6.00;99.90;;;;;;4971871;28;20400;-70
2022/11/11 00:39:15;;;;;;;2.83;2.00;;;6.10;99.90;;;;;;4971880;28;20741;-71
2022/11/11 00:41:41;;;;;;;3.55;1.92;;;6.00;99.90;;;;;;4971787;28;20894;-71
2022/11/11 00:44:07;;;;;;;2.40;2.20;;;6.10;99.90;;;;;;4971334;28;20407;-71
2022/11/11 00:52:00;;;;;;;2.43;2.00;;;6.30;99.90;;;;;;4972001;28;20387;-71
2022/11/11 00:54:26;;;;;;;2.57;2.03;;;6.30;99.90;;;;;;4971362;28;20762;-71
2022/11/11 00:56:51;;;;;;;2.00;1.80;;;6.30;99.90;;;;;;4971641;28;20411;-71
2022/11/11 00:59:17;;;;;;;4.60;2.10;;;6.30;99.90;;;;;;4970475;28;20465;-71
2022/11/11 01:01:42;;;;;;;1.85;1.50;;;6.30;99.90;;;;;;4971571;28;20396;-70
2022/11/11 01:04:08;;;;;;;2.03;1.92;;;6.30;99.90;;;;;;4971155;28;20462;-71
2022/11/11 01:06:33;;;;;;;3.33;1.70;;;6.30;99.90;;;;;;4971459;28;20414;-71
2022/11/11 01:09:04;;;;;;;2.20;1.70;;;6.30;99.90;;;;;;4971082;28;20414;-71
2022/11/11 01:11:30;;;;;;;2.90;2.00;;;6.30;99.90;;;;;;4971625;28;20392;-71
2022/11/11 01:13:55;;;;;;;1.70;1.60;;;6.20;99.90;;;;;;4971031;28;20410;-71
2022/11/11 01:16:23;;;;;;;1.60;1.50;;;6.20;99.90;;;;;;4971626;28;20415;-71
2022/11/11 01:18:50;;;;;;;2.70;1.50;;;6.10;99.90;;;;;;4971642;28;20388;-71
2022/11/11 01:21:19;;;;;;;2.42;1.80;;;6.20;99.90;;;;;;4970176;28;20407;-71
2022/11/11 01:23:46;;;;;;;2.20;1.70;;;6.00;99.90;;;;;;4970943;28;20384;-71
2022/11/11 01:26:19;;;;;;;1.80;1.60;;;5.90;99.90;;;;;;4971324;28;20452;-71
2022/11/11 01:28:48;;;;;;;2.80;1.80;;;6.00;99.90;;;;;;4973748;28;20458;-71
2022/11/11 01:31:15;;;;;;;3.25;1.85;;;5.90;99.90;;;;;;4975088;28;20483;-71
2022/11/11 01:33:41;;;;;;;1.77;1.30;;;5.90;99.90;;;;;;4974653;28;20477;-72
2022/11/11 01:36:12;;;;;;;2.88;1.60;;;5.90;99.90;;;;;;4974914;28;20764;-72
2022/11/11 01:38:39;;;;;;;2.90;1.70;;;5.90;99.90;;;;;;4975030;28;20392;-71
2022/11/11 01:43:51;;;;;;;1.60;1.50;;;6.00;99.90;;;;;;4969337;28;20438;-71
2022/11/11 01:46:27;;;;;;;1.52;1.23;;;5.90;99.90;;;;;;4974671;28;20412;-71
2022/11/11 01:49:19;;;;;;;2.03;1.70;;;5.90;99.90;;;;;;4974907;28;20407;-72
2022/11/11 01:51:54;;;;;;;2.00;1.80;;;5.90;99.90;;;;;;4974842;28;20384;-71
2022/11/11 01:54:31;;;;;;;1.70;1.45;;;6.00;99.90;;;;;;4974347;28;20487;-71
2022/11/11 01:57:10;;;;;;;1.70;1.40;;;6.10;99.90;;;;;;4973770;28;20840;-71
2022/11/11 01:59:38;;;;;;;2.23;1.50;;;6.10;99.90;;;;;;4974723;28;20773;-71
2022/11/11 02:02:17;;;;;;;1.98;1.77;;;6.10;99.90;;;;;;4974519;28;20482;-71
2022/11/11 02:07:30;;;;;;;3.30;1.50;;;6.00;99.90;;;;;;4974318;28;20974;-71
2022/11/11 02:09:56;;;;;;;2.80;1.47;;;6.10;99.90;;;;;;4974322;28;20384;-71
2022/11/11 02:15:06;;;;;;;1.80;1.20;;;6.00;99.90;;;;;;4974219;28;20387;-71
2022/11/11 02:17:32;;;;;;;1.90;1.70;;;5.80;99.90;;;;;;4974194;28;20961;-71
2022/11/11 02:20:00;;;;;;;2.00;1.80;;;5.80;99.90;;;;;;4974193;28;20454;-71
2022/11/11 02:23:21;;;;;;;1.58;1.48;;;5.80;99.90;;;;;;4973994;28;20392;-71
2022/11/11 02:25:49;;;;;;;1.65;1.55;;;5.80;99.90;;;;;;4957820;28;20415;-71
2022/11/11 02:28:16;;;;;;;4.20;1.50;;;5.70;99.90;;;;;;4973985;28;20384;-71
2022/11/11 02:30:42;;;;;;;1.50;1.37;;;5.60;99.90;;;;;;4973952;28;20420;-71
2022/11/11 02:33:07;;;;;;;1.50;1.40;;;5.40;99.90;;;;;;4973490;28;20928;-71
2022/11/11 02:35:36;;;;;;;1.53;1.37;;;5.40;99.90;;;;;;4973588;28;20388;-71
2022/11/11 02:38:07;;;;;;;1.60;1.40;;;5.30;99.90;;;;;;4973802;28;20384;-71
2022/11/11 02:43:26;;;;;;;3.50;1.60;;;5.60;99.90;;;;;;4973615;28;20996;-71
2022/11/11 02:45:51;;;;;;;2.20;1.30;;;5.50;99.90;;;;;;4973517;28;20396;-71
2022/11/11 02:48:17;;;;;;;2.30;1.50;;;5.50;99.90;;;;;;4973622;28;20396;-71
2022/11/11 02:50:43;;;;;;;1.47;1.37;;;5.50;99.90;;;;;;4973653;28;20385;-71
2022/11/11 02:53:08;;;;;;;1.53;1.30;;;5.40;99.90;;;;;;4973416;28;20925;-71
2022/11/11 02:55:34;;;;;;;1.90;1.20;;;5.30;99.90;;;;;;4973453;28;20940;-71
2022/11/11 02:57:59;;;;;;;3.30;1.20;;;5.40;99.90;;;;;;4973466;28;20399;-71
2022/11/11 03:00:25;;;;;;;3.08;1.40;;;5.40;99.90;;;;;;4972348;28;20407;-71
2022/11/11 03:02:51;;;;;;;2.45;1.40;;;5.50;99.90;;;;;;4973364;28;20392;-71
2022/11/11 03:05:16;;;;;;;1.30;1.20;;;5.60;99.90;;;;;;4973219;28;20902;-71
2022/11/11 03:07:42;;;;;;;1.92;1.30;;;5.60;99.90;;;;;;4971920;28;20435;-71
2022/11/11 03:10:08;;;;;;;1.80;1.30;;;5.60;99.90;;;;;;4973163;28;20401;-71
2022/11/11 03:12:33;;;;;;;3.10;1.00;;;5.60;99.90;;;;;;4972884;28;20471;-71
2022/11/11 03:14:59;;;;;;;1.80;1.10;;;5.50;99.90;;;;;;4971795;28;20392;-71
2022/11/11 03:17:39;;;;;;;1.33;1.00;;;5.40;99.90;;;;;;4971886;28;20384;-71
2022/11/11 03:23:14;;;;;;;1.90;1.10;;;5.30;99.90;;;;;;4972920;28;20375;-72
2022/11/11 03:25:43;;;;;;;1.40;1.30;;;5.20;99.90;;;;;;4972796;28;20487;-71
2022/11/11 03:28:18;;;;;;;2.72;1.40;;;5.20;99.90;;;;;;4972924;28;20400;-72
2022/11/11 03:30:46;;;;;;;2.75;1.27;;;5.30;99.90;;;;;;4972917;28;20471;-71
2022/11/11 03:33:13;;;;;;;2.30;1.10;;;5.30;99.90;;;;;;4972406;28;20423;-72
2022/11/11 03:35:39;;;;;;;1.60;0.80;;;5.20;99.90;;;;;;4971188;28;20396;-72
2022/11/11 03:38:15;;;;;;;1.13;1.02;;;5.20;99.90;;;;;;4972803;28;20392;-72
2022/11/11 03:40:45;;;;;;;1.90;0.93;;;5.30;99.90;;;;;;4972825;28;20434;-72
2022/11/11 03:43:15;;;;;;;1.90;1.00;;;5.30;99.90;;;;;;4972391;28;20395;-71
2022/11/11 03:45:42;;;;;;;2.20;1.40;;;5.30;99.90;;;;;;4972349;28;20816;-71
2022/11/11 03:48:07;;;;;;;1.35;1.00;;;5.30;99.90;;;;;;4972638;28;20392;-72
2022/11/11 03:50:33;;;;;;;1.33;1.00;;;5.40;99.90;;;;;;4972293;28;20397;-72
2022/11/11 03:52:59;;;;;;;2.30;1.33;;;5.50;99.90;;;;;;4971515;28;20395;-72
2022/11/11 03:55:24;;;;;;;2.67;1.77;;;5.40;99.90;;;;;;4972218;28;20750;-72
2022/11/11 03:57:50;;;;;;;1.43;1.20;;;5.40;99.90;;;;;;4972332;28;20388;-72
2022/11/11 04:00:20;;;;;;;1.60;1.20;;;5.30;99.90;;;;;;4972265;28;20486;-71
2022/11/11 04:11:13;;;;;;;1.92;1.30;;;5.40;99.90;;;;;;4972445;28;20411;-72
2022/11/11 04:16:29;;;;;;;1.20;1.10;;;5.30;99.90;;;;;;4972052;28;20950;-72
2022/11/11 04:21:42;;;;;;;2.58;1.50;;;5.20;99.90;;;;;;4971954;28;20547;-71
2022/11/11 04:26:54;;;;;;;2.05;1.20;;;5.00;99.90;;;;;;4971856;28;20941;-72
2022/11/11 04:29:29;;;;;;;2.33;1.70;;;5.10;99.90;;;;;;4971977;28;20453;-71
2022/11/11 04:34:52;;;;;;;1.50;1.40;;;5.10;99.90;;;;;;4971825;28;20516;-72
2022/11/11 04:37:19;;;;;;;1.92;1.55;;;5.20;99.90;;;;;;4972111;28;20400;-72
2022/11/11 04:42:30;;;;;;;1.80;1.27;;;5.20;99.90;;;;;;4967533;28;20391;-71
2022/11/11 04:47:53;;;;;;;1.50;1.30;;;5.30;99.90;;;;;;4971322;28;20426;-72
2022/11/11 04:50:19;;;;;;;1.30;1.20;;;5.20;99.90;;;;;;4970137;28;20708;-72
2022/11/11 04:52:45;;;;;;;1.85;1.30;;;5.20;99.90;;;;;;4969027;28;20419;-72
2022/11/11 04:57:54;;;;;;;1.43;1.20;;;5.10;99.90;;;;;;4971243;28;20454;-72
2022/11/11 05:00:20;;;;;;;1.30;1.10;;;5.10;99.90;;;;;;4971016;28;20396;-72
2022/11/11 05:08:54;;;;;;;1.20;1.10;;;5.00;99.90;;;;;;4973463;28;20403;-72
2022/11/11 05:11:01;;;;;;;1.40;1.20;;;5.00;99.90;;;;;;4974924;28;20419;-72
2022/11/11 05:21:50;;;;;;;2.20;1.30;;;5.10;99.90;;;;;;4974746;28;20439;-72
2022/11/11 05:27:00;;;;;;;3.70;1.60;;;5.20;99.90;;;;;;4975031;28;20488;-72
2022/11/11 05:29:25;;;;;;;1.67;1.57;;;5.20;99.90;;;;;;4974643;28;20388;-71
2022/11/11 05:31:51;;;;;;;1.70;1.50;;;5.20;99.90;;;;;;4971192;28;20418;-72
2022/11/11 05:34:16;;;;;;;1.40;1.30;;;5.30;99.90;;;;;;4974509;28;20431;-72
2022/11/11 05:36:42;;;;;;;2.00;1.30;;;5.30;99.90;;;;;;4974796;28;20392;-72
2022/11/11 05:39:07;;;;;;;1.30;1.10;;;5.30;99.90;;;;;;4974971;28;20754;-72
2022/11/11 05:41:33;;;;;;;1.77;1.60;;;5.30;99.90;;;;;;4968634;28;20447;-72
2022/11/11 05:43:58;;;;;;;4.70;1.80;;;5.20;99.90;;;;;;4974399;28;20402;-71
2022/11/11 05:46:24;;;;;;;2.37;1.60;;;5.20;99.90;;;;;;4970094;28;20426;-71
2022/11/11 05:51:33;;;;;;;2.70;1.90;;;5.30;99.90;;;;;;4971634;28;20459;-72
2022/11/11 05:53:59;;;;;;;1.67;1.50;;;5.10;99.90;;;;;;4971461;28;20393;-71
2022/11/11 05:56:24;;;;;;;2.00;1.80;;;5.00;99.90;;;;;;4974362;28;20392;-71
2022/11/11 05:58:50;;;;;;;2.60;1.70;;;5.00;99.90;;;;;;4974544;28;20395;-71
2022/11/11 06:01:16;;;;;;;2.53;1.90;;;5.00;99.90;;;;;;4974495;28;20392;-72
2022/11/11 06:03:41;;;;;;;2.80;1.80;;;4.90;99.90;;;;;;4974351;28;20416;-72
2022/11/11 06:06:07;;;;;;;2.40;2.20;;;4.80;99.90;;;;;;4967023;28;20411;-72
2022/11/11 06:08:32;;;;;;;1.70;1.60;;;4.80;99.90;;;;;;4972837;28;20407;-72
2022/11/11 06:10:58;;;;;;;2.13;1.60;;;4.80;99.90;;;;;;4974310;28;20551;-72
2022/11/11 06:13:23;;;;;;;4.17;1.70;;;4.70;99.90;;;;;;4973792;28;20396;-72
2022/11/11 06:15:49;;;;;;;2.20;1.50;;;4.80;99.90;;;;;;4969845;28;21172;-72
2022/11/11 06:18:14;;;;;;;1.70;1.60;;;4.60;99.90;;;;;;4974009;28;20396;-72
2022/11/11 06:20:40;;;;;;;2.00;1.80;;;4.70;99.90;;;;;;4973374;28;20397;-72
2022/11/11 06:23:05;;;;;;;3.33;2.03;;;4.70;99.90;;;;;;4971950;28;20388;-72
2022/11/11 06:28:18;;;;;;;1.92;1.77;;;4.80;99.90;;;;;;4974306;28;20459;-72
2022/11/11 06:30:45;;;;;;;3.00;1.90;;;4.80;99.90;;;;;;4973220;28;20384;-72
2022/11/11 06:33:11;;;;;;;2.70;1.33;;;4.80;99.90;;;;;;4973534;28;20463;-72
2022/11/11 06:35:38;;;;;;;2.53;1.67;;;4.80;99.90;;;;;;4973728;28;20488;-72
2022/11/11 06:38:05;;;;;;;1.90;1.80;;;4.90;99.90;;;;;;4974046;28;20395;-72
2022/11/11 06:40:32;;;;;;;2.03;1.83;;;4.90;99.90;;;;;;4973794;28;20384;-72
2022/11/11 06:42:58;;;;;;;3.67;2.13;;;4.90;99.90;;;;;;4969389;28;20432;-73
2022/11/11 06:45:26;;;;;;;2.30;1.70;;;4.90;99.90;;;;;;4970449;28;20925;-72
2022/11/11 06:47:51;;;;;;;1.83;1.73;;;4.90;99.90;;;;;;4969620;28;20412;-72
2022/11/11 06:50:17;;;;;;;2.07;1.90;;;4.80;99.90;;;;;;4973530;28;20400;-71
2022/11/11 06:52:43;;;;;;;2.50;2.00;;;5.00;99.90;;;;;;4973368;28;20446;-72
2022/11/11 06:55:09;;;;;;;3.45;2.45;;;5.00;99.90;;;;;;4973253;28;20399;-72
2022/11/11 06:57:35;;;;;;;188.93;105.90;;;5.20;99.90;;;;;;4969101;28;20408;-72
2022/11/11 07:00:01;;;;;;;9.10;6.13;;;5.30;99.90;;;;;;4964030;28;20419;-72
2022/11/11 07:02:27;;;;;;;4.55;2.25;;;5.30;99.90;;;;;;4968693;28;20411;-72
2022/11/11 07:04:52;;;;;;;2.90;1.80;;;5.40;99.90;;;;;;4970601;28;20435;-72
2022/11/11 07:07:19;;;;;;;4.53;2.00;;;5.40;99.90;;;;;;4967354;28;20421;-72
2022/11/11 07:09:44;;;;;;;2.92;2.13;;;5.40;99.90;;;;;;4973250;28;20412;-72
2022/11/11 07:12:10;;;;;;;2.63;2.43;;;5.40;99.90;;;;;;4973253;28;20455;-73
2022/11/11 07:14:35;;;;;;;3.60;2.37;;;5.50;99.90;;;;;;4972650;28;20459;-73
2022/11/11 07:17:01;;;;;;;2.30;2.10;;;5.50;99.90;;;;;;4971513;28;20388;-73
2022/11/11 07:19:26;;;;;;;3.30;2.97;;;5.50;99.90;;;;;;4973202;28;20901;-73
2022/11/11 07:21:52;;;;;;;8.73;7.00;;;5.60;99.90;;;;;;4972802;28;20420;-71
2022/11/11 07:24:17;;;;;;;7.67;5.60;;;5.60;99.90;;;;;;4969684;28;20421;-72
2022/11/11 07:26:43;;;;;;;6.00;4.22;;;5.70;99.90;;;;;;4969837;28;20408;-72
2022/11/11 07:29:08;;;;;;;4.28;3.50;;;5.70;99.90;;;;;;4972674;28;20388;-71
2022/11/11 07:31:34;;;;;;;3.40;3.03;;;5.70;99.90;;;;;;4973604;28;20387;-71
2022/11/11 07:33:59;;;;;;;3.40;3.10;;;5.70;99.90;;;;;;4974401;28;20411;-72
2022/11/11 07:36:25;;;;;;;3.75;3.20;;;5.70;99.90;;;;;;4985572;28;20511;-72
2022/11/11 07:38:51;;;;;;;4.63;3.88;;;5.70;99.90;;;;;;4980704;28;20769;-72
2022/11/11 07:41:16;;;;;;;3.40;3.10;;;5.90;99.90;;;;;;4978803;28;20388;-72
2022/11/11 07:43:42;;;;;;;6.23;3.20;;;5.90;99.90;;;;;;4988100;28;20399;-72
2022/11/11 07:46:07;;;;;;;4.87;2.93;;;5.90;99.90;;;;;;4975911;28;20387;-73
2022/11/11 07:48:33;;;;;;;2.50;2.30;;;6.00;99.90;;;;;;4984375;28;20398;-73
2022/11/11 07:50:59;;;;;;;4.10;2.60;;;6.00;99.90;;;;;;4982384;28;20386;-72
2022/11/11 07:53:27;;;;;;;3.50;2.58;;;6.10;99.90;;;;;;4975738;28;20392;-72
2022/11/11 07:55:53;;;;;;;2.90;2.70;;;6.00;99.90;;;;;;4986717;28;20394;-72
2022/11/11 07:58:18;;;;;;;3.30;2.70;;;6.00;99.90;;;;;;4977428;28;20390;-72
2022/11/11 08:00:44;;;;;;;4.30;3.53;;;6.10;99.90;;;;;;4982429;28;20820;-72
2022/11/11 08:03:09;;;;;;;3.53;3.00;;;6.20;99.90;;;;;;4983913;28;20453;-72
2022/11/11 08:05:35;;;;;;;2.70;2.50;;;6.30;99.90;;;;;;4995104;23;20443;-72
2022/11/11 08:08:05;;;;;;;2.80;2.60;;;6.30;99.90;;;;;;4971718;28;20408;-72
2022/11/11 08:10:31;;;;;;;2.58;2.38;;;6.40;99.90;;;;;;4959400;28;20775;-72
2022/11/11 08:15:41;;;;;;;3.20;2.90;;;6.60;99.90;;;;;;4971831;28;20435;-71
2022/11/11 08:18:07;;;;;;;2.50;2.10;;;6.70;99.90;;;;;;4971869;28;20393;-71
2022/11/11 08:20:33;;;;;;;2.78;2.40;;;6.80;99.90;;;;;;4969647;28;20775;-72
2022/11/11 08:22:59;;;;;;;3.15;2.30;;;6.90;99.90;;;;;;4970949;28;20762;-72
2022/11/11 08:25:25;;;;;;;3.50;2.50;;;7.00;99.90;;;;;;4971640;28;20396;-72
2022/11/11 08:27:59;;;;;;;3.65;2.40;;;7.10;99.90;;;;;;4971888;28;20412;-72
2022/11/11 08:30:24;;;;;;;2.10;1.90;;;7.20;99.90;;;;;;4971033;28;20455;-72
2022/11/11 08:33:01;;;;;;;4.60;2.10;;;7.30;99.90;;;;;;4971582;28;20835;-72
2022/11/11 08:35:27;;;;;;;3.50;2.30;;;7.40;99.90;;;;;;4971878;28;20395;-73
2022/11/11 08:37:53;;;;;;;2.60;2.40;;;7.50;99.90;;;;;;4971228;28;20917;-72
2022/11/11 08:40:19;;;;;;;2.70;2.50;;;7.50;99.90;;;;;;4971356;28;20765;-72
2022/11/11 08:42:44;;;;;;;2.53;2.33;;;7.60;99.90;;;;;;4970744;28;20475;-72
2022/11/11 08:45:10;;;;;;;2.60;2.40;;;7.70;99.90;;;;;;4971515;28;20426;-72
2022/11/11 08:47:36;;;;;;;5.07;2.60;;;7.70;99.90;;;;;;4971346;28;20926;-72
2022/11/11 08:50:03;;;;;;;3.53;2.80;;;7.90;99.90;;;;;;4971845;28;20459;-71
2022/11/11 08:52:28;;;;;;;11.10;7.50;;;8.10;99.90;;;;;;4971498;28;20476;-72
2022/11/11 08:54:54;;;;;;;5.03;4.20;;;8.20;99.90;;;;;;4971354;28;20472;-72
2022/11/11 08:57:19;;;;;;;4.28;3.88;;;8.50;99.90;;;;;;4970795;28;20399;-71
2022/11/11 08:59:45;;;;;;;4.63;2.40;;;8.60;99.90;;;;;;4971208;28;20388;-72
2022/11/11 09:02:12;;;;;;;3.90;2.47;;;8.80;99.90;;;;;;4971274;28;20403;-72
2022/11/11 09:04:38;;;;;;;3.15;2.30;;;8.90;99.90;;;;;;4970911;28;20415;-72
2022/11/11 09:07:05;;;;;;;2.95;2.60;;;9.00;99.90;;;;;;4971442;28;20851;-72
2022/11/11 09:09:30;;;;;;;3.45;2.70;;;9.10;99.90;;;;;;4970082;28;20455;-72
2022/11/11 09:11:56;;;;;;;4.25;2.80;;;9.20;99.90;;;;;;4971461;28;20688;-71
2022/11/11 09:14:21;;;;;;;3.90;3.50;;;9.20;99.90;;;;;;4971123;28;20399;-72
2022/11/11 09:16:47;;;;;;;7.80;3.97;;;9.30;99.90;;;;;;4970560;28;20392;-72
2022/11/11 09:19:12;;;;;;;4.82;4.32;;;9.20;99.90;;;;;;4971309;28;20407;-72
2022/11/11 09:21:38;;;;;;;6.40;4.80;;;9.20;99.90;;;;;;4970791;28;20400;-71
2022/11/11 09:24:04;;;;;;;5.90;4.70;;;9.20;99.90;;;;;;4969391;28;20549;-72
2022/11/11 09:26:30;;;;;;;5.87;3.57;;;9.10;99.90;;;;;;4971224;28;20893;-72
2022/11/11 09:28:55;;;;;;;5.20;3.80;;;8.90;99.90;;;;;;4971485;28;20416;-72
2022/11/11 09:31:22;;;;;;;6.80;5.70;;;8.80;99.90;;;;;;4970721;28;20416;-71
2022/11/11 09:33:49;;;;;;;6.90;4.63;;;8.70;99.90;;;;;;4971174;28;20384;-72
2022/11/11 09:36:14;;;;;;;4.97;3.80;;;8.90;99.90;;;;;;4971262;28;20406;-71
2022/11/11 09:38:40;;;;;;;5.60;3.77;;;8.90;99.90;;;;;;4971295;28;20388;-72
2022/11/11 09:41:22;;;;;;;4.75;3.33;;;9.00;99.90;;;;;;4971334;28;20388;-72
2022/11/11 09:43:55;;;;;;;3.35;3.05;;;9.00;99.90;;;;;;4971121;28;20415;-72
2022/11/11 09:46:24;;;;;;;4.30;3.00;;;9.00;99.90;;;;;;4971127;28;20470;-71
2022/11/11 09:49:28;;;;;;;4.00;3.00;;;9.10;99.90;;;;;;4972037;28;20412;-72
2022/11/11 09:52:13;;;;;;;3.70;3.20;;;9.30;99.90;;;;;;4981421;28;20955;-72
2022/11/11 09:55:03;;;;;;;2.83;2.60;;;9.30;99.90;;;;;;4974626;28;20392;-72
2022/11/11 09:57:52;;;;;;;2.90;2.70;;;9.40;99.90;;;;;;4975122;28;20866;-72
2022/11/11 10:00:21;;;;;;;3.28;2.60;;;9.60;99.90;;;;;;4974828;28;20400;-71
2022/11/11 10:02:53;;;;;;;3.20;2.90;;;9.80;99.90;;;;;;4974378;28;20388;-71
2022/11/11 10:05:43;;;;;;;6.85;3.30;;;9.80;99.90;;;;;;4974516;28;20404;-72
2022/11/11 10:08:43;;;;;;;3.63;3.30;;;9.90;99.90;;;;;;4982533;28;20918;-72
2022/11/11 10:11:19;;;;;;;3.47;3.17;;;10.00;99.90;;;;;;4974518;28;20931;-72
2022/11/11 10:13:44;;;;;;;5.25;3.85;;;10.00;99.90;;;;;;4974344;28;20490;-72
2022/11/11 10:16:38;;;;;;;6.70;3.30;;;10.20;99.90;;;;;;4974213;28;20427;-72
2022/11/11 10:19:12;;;;;;;4.53;3.45;;;10.20;99.90;;;;;;4973050;28;20398;-71
2022/11/11 10:21:49;;;;;;;4.00;3.60;;;10.30;99.90;;;;;;4973789;28;20475;-72
2022/11/11 10:24:24;;;;;;;5.65;4.18;;;10.40;99.90;;;;;;4973952;28;20450;-72
2022/11/11 10:26:50;;;;;;;4.45;3.80;;;10.30;99.90;;;;;;4974127;28;20498;-72
2022/11/11 10:29:21;;;;;;;5.03;4.10;;;10.60;99.90;;;;;;4974085;28;20484;-73
2022/11/11 10:32:04;;;;;;;4.63;4.22;;;10.50;99.90;;;;;;4974072;28;20410;-71
2022/11/11 10:34:33;;;;;;;4.78;4.18;;;10.40;99.90;;;;;;4973726;28;20391;-72
2022/11/11 10:37:00;;;;;;;5.78;4.40;;;10.50;99.90;;;;;;4974108;28;20471;-72
2022/11/11 10:39:49;;;;;;;5.07;4.13;;;10.80;99.90;;;;;;4972671;28;21182;-71
2022/11/11 10:42:16;;;;;;;6.07;3.97;;;10.80;99.90;;;;;;4976243;28;20498;-72
2022/11/11 10:44:43;;;;;;;4.30;3.90;;;11.00;99.90;;;;;;4973599;28;20751;-72
2022/11/11 10:47:42;;;;;;;4.47;4.07;;;11.30;99.90;;;;;;4973757;28;20401;-71
2022/11/11 10:50:22;;;;;;;5.75;4.20;;;11.40;99.90;;;;;;4973668;28;20758;-72
2022/11/11 10:53:14;;;;;;;5.13;4.03;;;11.40;99.90;;;;;;4973438;28;20467;-72
2022/11/11 10:55:56;;;;;;;4.40;4.00;;;11.30;99.90;;;;;;4972053;28;20424;-72
2022/11/11 10:58:33;;;;;;;5.38;3.83;;;11.60;99.90;;;;;;4973641;28;20416;-71
2022/11/11 11:01:03;;;;;;;4.00;3.70;;;11.60;99.90;;;;;;4973123;28;20479;-72
2022/11/11 11:03:39;;;;;;;3.72;3.35;;;12.20;99.90;;;;;;4973263;28;20388;-72
2022/11/11 11:06:09;;;;;;;4.65;3.58;;;12.20;99.90;;;;;;4971939;28;20407;-72
2022/11/11 11:08:47;;;;;;;4.88;3.72;;;12.20;99.90;;;;;;4973462;28;20479;-73
2022/11/11 11:11:22;;;;;;;5.00;3.90;;;12.10;99.90;;;;;;4973459;28;20380;-72
2022/11/11 11:13:59;;;;;;;5.82;4.03;;;12.40;99.90;;;;;;4973074;28;20400;-71
2022/11/11 11:16:31;;;;;;;5.93;4.07;;;12.20;99.90;;;;;;4973256;28;20451;-72
2022/11/11 11:19:25;;;;;;;4.70;4.20;;;12.10;99.90;;;;;;4973314;28;20384;-72
2022/11/11 11:21:58;;;;;;;5.75;4.00;;;12.40;99.90;;;;;;4972722;28;20887;-72
2022/11/11 11:24:30;;;;;;;4.95;4.07;;;12.90;99.90;;;;;;4972790;28;20397;-70
2022/11/11 11:27:01;;;;;;;5.20;4.30;;;12.90;99.90;;;;;;4972945;28;20404;-72
2022/11/11 11:29:36;;;;;;;5.00;3.90;;;12.60;99.90;;;;;;4973019;28;20611;-72
2022/11/11 11:32:12;;;;;;;5.00;4.50;;;12.90;99.90;;;;;;4973061;28;20385;-72
2022/11/11 11:34:52;;;;;;;4.30;3.90;;;13.00;99.90;;;;;;4972626;28;20798;-71
2022/11/11 11:37:23;;;;;;;6.55;4.18;;;13.00;99.90;;;;;;4972917;28;20392;-72
2022/11/11 11:40:02;;;;;;;4.45;4.05;;;12.90;99.90;;;;;;4972719;28;20886;-72
2022/11/11 11:42:36;;;;;;;5.07;4.20;;;13.10;99.90;;;;;;4971393;28;20404;-71
2022/11/11 11:45:23;;;;;;;5.60;3.50;;;13.10;99.90;;;;;;4972704;28;20479;-72
2022/11/11 11:48:22;;;;;;;5.13;3.83;;;13.10;99.90;;;;;;4972692;28;20416;-72
2022/11/11 11:50:51;;;;;;;5.20;3.60;;;12.90;99.90;;;;;;4972604;28;20399;-71
2022/11/11 11:53:53;;;;;;;4.85;4.07;;;12.70;99.90;;;;;;4972421;28;20380;-71
2022/11/11 11:56:31;;;;;;;5.68;4.30;;;12.70;99.90;;;;;;4972391;28;20877;-72
2022/11/11 11:59:05;;;;;;;4.40;4.00;;;12.90;99.90;;;;;;4972426;28;20528;-72
2022/11/11 12:01:59;;;;;;;5.25;3.55;;;13.10;99.90;;;;;;4972816;28;20384;-73
2022/11/11 12:04:41;;;;;;;4.78;3.78;;;13.30;99.90;;;;;;4971877;28;20435;-72
2022/11/11 12:07:27;;;;;;;5.70;3.53;;;13.60;99.90;;;;;;4972282;28;20464;-72
2022/11/11 12:10:18;;;;;;;4.57;3.73;;;13.20;99.90;;;;;;4972349;28;20390;-72
2022/11/11 12:13:24;;;;;;;6.00;4.03;;;13.40;99.90;;;;;;4971220;28;20872;-73
2022/11/11 12:15:50;;;;;;;4.50;3.20;;;13.30;99.90;;;;;;4977456;28;20470;-73
2022/11/11 12:18:34;;;;;;;5.32;3.40;;;13.40;99.90;;;;;;4973910;28;20404;-73
2022/11/11 12:21:08;;;;;;;3.47;3.10;;;13.00;99.90;;;;;;4974482;28;20461;-74
2022/11/11 12:24:07;;;;;;;3.70;3.17;;;13.10;99.90;;;;;;4975341;28;20423;-73
2022/11/11 12:26:36;;;;;;;3.88;3.40;;;13.40;99.90;;;;;;4981754;28;20510;-73
2022/11/11 12:29:08;;;;;;;4.20;3.40;;;13.40;99.90;;;;;;4978544;28;20404;-73
2022/11/11 12:31:55;;;;;;;4.15;3.30;;;13.30;99.90;;;;;;4981139;28;20385;-73
2022/11/11 12:34:23;;;;;;;4.28;2.90;;;13.10;99.90;;;;;;4987328;28;20561;-73
2022/11/11 12:37:09;;;;;;;3.22;2.92;;;13.20;99.90;;;;;;4978637;28;20854;-73
2022/11/11 12:39:56;;;;;;;5.68;3.63;;;13.30;99.90;;;;;;4981554;28;20392;-72
2022/11/11 12:42:58;;;;;;;5.70;3.70;;;13.40;99.90;;;;;;4976085;28;20479;-73
2022/11/11 12:46:00;;;;;;;5.05;3.60;;;13.30;99.90;;;;;;4974939;28;20417;-73
2022/11/11 12:48:55;;;;;;;3.95;3.55;;;13.50;99.90;;;;;;4982848;28;20408;-72
2022/11/11 12:51:27;;;;;;;4.38;3.38;;;13.60;99.90;;;;;;4982026;28;20375;-73
2022/11/11 12:54:43;;;;;;;5.05;3.85;;;14.10;99.90;;;;;;4981317;28;20746;-73
2022/11/11 12:57:22;;;;;;;3.85;3.28;;;13.90;99.90;;;;;;4997134;28;20388;-73
2022/11/11 13:00:12;;;;;;;3.47;2.95;;;13.90;99.90;;;;;;4978841;28;20392;-73
2022/11/11 13:03:05;;;;;;;4.03;3.00;;;14.00;99.90;;;;;;4975714;28;20402;-73
2022/11/11 13:05:37;;;;;;;3.10;2.80;;;14.00;99.90;;;;;;4975208;28;20447;-73
2022/11/11 13:08:29;;;;;;;3.40;2.90;;;14.00;99.90;;;;;;4970059;28;20447;-73
2022/11/11 13:11:29;;;;;;;4.85;3.00;;;14.30;99.90;;;;;;4977174;28;20529;-72
2022/11/11 13:14:18;;;;;;;4.13;2.70;;;14.00;99.90;;;;;;4979337;28;20422;-72
2022/11/11 13:16:43;;;;;;;3.60;3.00;;;14.30;99.90;;;;;;4974829;28;20423;-73
2022/11/11 13:19:32;;;;;;;2.78;2.30;;;14.10;99.90;;;;;;4979856;28;20828;-73
2022/11/11 13:22:21;;;;;;;5.70;2.40;;;13.90;99.90;;;;;;4980037;28;20455;-73
2022/11/11 13:24:48;;;;;;;2.78;2.13;;;13.90;99.90;;;;;;4980048;28;20926;-72
2022/11/11 13:27:31;;;;;;;3.20;2.40;;;13.90;99.90;;;;;;4978161;28;20416;-73
2022/11/11 13:30:20;;;;;;;2.50;2.30;;;13.80;99.90;;;;;;4981620;28;20410;-73
2022/11/11 13:33:03;;;;;;;2.60;2.40;;;14.00;99.90;;;;;;4984023;28;20485;-73
2022/11/11 13:35:41;;;;;;;4.37;2.50;;;13.90;99.90;;;;;;4984440;28;20399;-73
2022/11/11 13:38:23;;;;;;;3.63;2.70;;;13.80;99.90;;;;;;4980783;28;20482;-73
2022/11/11 13:40:52;;;;;;;3.55;2.60;;;13.60;99.90;;;;;;4980528;28;20462;-72
2022/11/11 13:43:31;;;;;;;4.53;2.40;;;13.70;99.90;;;;;;4980578;28;20474;-72
2022/11/11 13:45:59;;;;;;;3.70;2.50;;;13.70;99.90;;;;;;4982302;28;20395;-72
2022/11/11 13:48:48;;;;;;;3.13;2.30;;;13.80;99.90;;;;;;4978862;28;20431;-73
2022/11/11 13:51:39;;;;;;;2.70;2.50;;;13.70;99.90;;;;;;4985396;28;20558;-72
2022/11/11 13:54:23;;;;;;;4.55;2.15;;;13.50;99.90;;;;;;4971802;28;20402;-73
2022/11/11 13:56:50;;;;;;;3.45;2.10;;;13.40;99.90;;;;;;4981204;28;20392;-74
2022/11/11 13:59:27;;;;;;;2.80;2.00;;;13.60;99.90;;;;;;4983514;28;20422;-73
2022/11/11 14:02:31;;;;;;;2.60;2.22;;;13.70;99.90;;;;;;4982811;28;20411;-74
2022/11/11 14:05:07;;;;;;;4.20;2.38;;;13.70;99.90;;;;;;4981737;28;20418;-73
2022/11/11 14:07:47;;;;;;;3.92;2.30;;;13.60;99.90;;;;;;4982955;28;20415;-73
2022/11/11 14:10:16;;;;;;;4.35;2.30;;;13.70;99.90;;;;;;4976992;28;20391;-73
2022/11/11 14:12:48;;;;;;;2.88;2.10;;;13.50;99.90;;;;;;4980424;28;20401;-73
2022/11/11 14:15:32;;;;;;;2.13;1.90;;;13.50;99.90;;;;;;4984197;28;20752;-73
2022/11/11 14:17:57;;;;;;;5.00;2.40;;;13.40;99.90;;;;;;4975715;28;20419;-73
2022/11/11 14:20:32;;;;;;;3.10;2.10;;;13.40;99.90;;;;;;4981271;28;20927;-73
2022/11/11 14:23:32;;;;;;;2.45;2.25;;;13.50;99.90;;;;;;4980918;28;20985;-73
2022/11/11 14:26:10;;;;;;;2.60;2.20;;;13.40;99.90;;;;;;4978525;28;20392;-73
2022/11/11 14:28:44;;;;;;;3.75;2.20;;;13.40;99.90;;;;;;4975923;23;20888;-73
2022/11/11 14:31:13;;;;;;;2.70;2.10;;;13.20;99.90;;;;;;4952981;29;20442;-73
2022/11/11 14:33:53;;;;;;;3.72;2.80;;;13.10;99.90;;;;;;4945835;29;20401;-73
2022/11/11 14:36:27;;;;;;;2.30;2.10;;;13.20;99.90;;;;;;4953577;28;20478;-72
2022/11/11 14:39:08;;;;;;;2.80;2.13;;;13.20;99.90;;;;;;4935574;29;20475;-72